Airfield :
LOGIN :

Register | Disclaimer

   EN    FR    IT 

 










Legend :    VFR   Marginal VFR   IFR   Intensive IFR   Very Intensive IFR
Visi :
Ceiling :
>= 8 km
>= 3000ft
5 to 8 km
1000 to 3000 ft
1500m to 5 km
500 to 1000 ft
800 to 1500m
200 to 500 ft
< 800m
< 200 ft
Symbols :   Thunderstorms  Fog  Heavy snow  Heavy precipitations  Wind > 20 kt
SIGMETs :     Misc.  Thunderstorms  Icing  Turbulence  Mountain Waves  Volcanic Ashes






- Airport Elevation : 102 ft
- IATA code : KEL


EDHK - Holtenau

CURRENT METAR :
  • 170250Z AUTO 21003KT 9999 // SCT046/// BKN200/// 07/07 Q1000

EXPIRED METARs :
  • 170220Z AUTO 20003KT 9999 // FEW050/// SCT210/// 08/07 Q1000
  • 170150Z AUTO 25004KT 9999 // FEW170/// 07/07 Q1000
  • 170120Z AUTO 22002KT 9999 // NCD 07/07 Q1000
  • 170050Z AUTO VRB02KT 9999 // FEW130/// 08/07 Q1000
  • 170020Z AUTO 28003KT 9999 // SCT070/// BKN150/// 08/08 Q1000
  • 162350Z AUTO 24003KT 9999 // OVC054/// 09/08 Q1000

Expired Forecast.



MET'MAP, your aeronautical weather chart ! - Copyright ORBIFLY December 2007 - Disclaimer

ORBIFLY MET'MAP TEAM :

Programming & Development : Alexandra Zaïnal
Concept & original design : Baudouin d'Aumeries
Assistance for programming : Marc-Olivier Méhu
Technical & hardware support : Manuel Goepfert

Contact : metmap@orbifly.com




SOURCES & CREDITS :

   NOAA